sensor_id;sensor_type;location;lat;lon;timestamp;P1;durP1;ratioP1;P2;durP2;ratioP2
36213;SDS011;37652;50.400;30.628;2022-10-31T00:01:39;5.65;;;1.98;;
36213;SDS011;37652;50.400;30.628;2022-10-31T00:03:40;4.68;;;1.65;;
36213;SDS011;37652;50.400;30.628;2022-10-31T00:05:41;7.68;;;1.92;;
36213;SDS011;37652;50.400;30.628;2022-10-31T00:07:46;6.57;;;1.90;;
36213;SDS011;37652;50.400;30.628;2022-10-31T00:09:47;5.57;;;1.73;;
36213;SDS011;37652;50.400;30.628;2022-10-31T00:11:48;7.40;;;1.60;;
36213;SDS011;37652;50.400;30.628;2022-10-31T00:13:49;4.55;;;1.63;;
36213;SDS011;37652;50.400;30.628;2022-10-31T00:15:50;5.20;;;1.60;;
36213;SDS011;37652;50.400;30.628;2022-10-31T00:17:51;5.75;;;1.92;;
36213;SDS011;37652;50.400;30.628;2022-10-31T00:19:52;5.88;;;1.92;;
36213;SDS011;37652;50.400;30.628;2022-10-31T00:21:53;4.05;;;1.55;;
36213;SDS011;37652;50.400;30.628;2022-10-31T00:23:54;4.88;;;1.85;;
36213;SDS011;37652;50.400;30.628;2022-10-31T00:25:59;5.78;;;1.95;;
36213;SDS011;37652;50.400;30.628;2022-10-31T00:28:02;4.22;;;1.48;;
36213;SDS011;37652;50.400;30.628;2022-10-31T00:30:03;9.32;;;2.25;;
36213;SDS011;37652;50.400;30.628;2022-10-31T00:32:05;4.65;;;1.98;;
36213;SDS011;37652;50.400;30.628;2022-10-31T00:34:05;5.97;;;1.90;;
36213;SDS011;37652;50.400;30.628;2022-10-31T00:36:07;7.55;;;1.50;;
36213;SDS011;37652;50.400;30.628;2022-10-31T00:38:10;4.80;;;1.85;;
36213;SDS011;37652;50.400;30.628;2022-10-31T00:40:11;4.28;;;2.08;;
36213;SDS011;37652;50.400;30.628;2022-10-31T00:42:12;5.50;;;1.80;;
36213;SDS011;37652;50.400;30.628;2022-10-31T00:44:12;2.83;;;1.83;;
36213;SDS011;37652;50.400;30.628;2022-10-31T00:46:13;4.50;;;2.00;;
36213;SDS011;37652;50.400;30.628;2022-10-31T00:48:14;7.25;;;2.05;;
36213;SDS011;37652;50.400;30.628;2022-10-31T00:50:15;5.85;;;2.63;;
36213;SDS011;37652;50.400;30.628;2022-10-31T00:52:16;4.43;;;2.05;;
36213;SDS011;37652;50.400;30.628;2022-10-31T00:54:17;7.10;;;1.90;;
36213;SDS011;37652;50.400;30.628;2022-10-31T00:56:18;4.25;;;1.67;;
36213;SDS011;37652;50.400;30.628;2022-10-31T00:58:19;4.55;;;1.70;;
36213;SDS011;37652;50.400;30.628;2022-10-31T01:00:20;5.22;;;1.98;;
36213;SDS011;37652;50.400;30.628;2022-10-31T01:02:21;6.10;;;2.08;;
36213;SDS011;37652;50.400;30.628;2022-10-31T01:04:22;6.75;;;2.00;;
36213;SDS011;37652;50.400;30.628;2022-10-31T01:06:23;4.95;;;1.92;;
36213;SDS011;37652;50.400;30.628;2022-10-31T01:08:24;6.55;;;2.03;;
36213;SDS011;37652;50.400;30.628;2022-10-31T01:10:25;8.48;;;2.22;;
36213;SDS011;37652;50.400;30.628;2022-10-31T01:12:26;8.40;;;1.98;;
36213;SDS011;37652;50.400;30.628;2022-10-31T01:14:27;4.25;;;1.92;;
36213;SDS011;37652;50.400;30.628;2022-10-31T01:16:28;5.55;;;1.80;;
36213;SDS011;37652;50.400;30.628;2022-10-31T01:18:29;4.50;;;1.90;;
36213;SDS011;37652;50.400;30.628;2022-10-31T01:20:30;5.22;;;1.80;;
36213;SDS011;37652;50.400;30.628;2022-10-31T01:22:31;3.78;;;2.05;;
36213;SDS011;37652;50.400;30.628;2022-10-31T01:24:32;5.25;;;1.63;;
36213;SDS011;37652;50.400;30.628;2022-10-31T01:26:33;6.13;;;2.20;;
36213;SDS011;37652;50.400;30.628;2022-10-31T01:28:35;5.95;;;2.10;;
36213;SDS011;37652;50.400;30.628;2022-10-31T01:30:37;4.22;;;1.85;;
36213;SDS011;37652;50.400;30.628;2022-10-31T01:32:38;4.35;;;2.13;;
36213;SDS011;37652;50.400;30.628;2022-10-31T01:34:39;5.03;;;1.90;;
36213;SDS011;37652;50.400;30.628;2022-10-31T01:36:40;5.00;;;2.38;;
36213;SDS011;37652;50.400;30.628;2022-10-31T01:38:41;5.57;;;2.17;;
36213;SDS011;37652;50.400;30.628;2022-10-31T01:40:41;4.25;;;2.03;;
36213;SDS011;37652;50.400;30.628;2022-10-31T01:42:42;5.47;;;1.80;;
36213;SDS011;37652;50.400;30.628;2022-10-31T01:48:55;3.80;;;1.85;;
36213;SDS011;37652;50.400;30.628;2022-10-31T01:50:59;4.60;;;1.63;;
36213;SDS011;37652;50.400;30.628;2022-10-31T01:53:00;6.07;;;2.10;;
36213;SDS011;37652;50.400;30.628;2022-10-31T01:55:04;7.22;;;2.30;;
36213;SDS011;37652;50.400;30.628;2022-10-31T01:57:08;4.20;;;1.67;;
36213;SDS011;37652;50.400;30.628;2022-10-31T01:59:12;3.70;;;1.55;;
36213;SDS011;37652;50.400;30.628;2022-10-31T02:01:16;8.23;;;2.03;;
36213;SDS011;37652;50.400;30.628;2022-10-31T02:03:18;5.75;;;1.88;;
36213;SDS011;37652;50.400;30.628;2022-10-31T02:05:20;8.80;;;1.75;;
36213;SDS011;37652;50.400;30.628;2022-10-31T02:07:29;7.75;;;1.83;;
36213;SDS011;37652;50.400;30.628;2022-10-31T02:09:38;6.65;;;1.65;;
36213;SDS011;37652;50.400;30.628;2022-10-31T02:11:40;4.28;;;1.92;;
36213;SDS011;37652;50.400;30.628;2022-10-31T02:13:43;7.18;;;2.20;;
36213;SDS011;37652;50.400;30.628;2022-10-31T02:15:45;7.50;;;1.75;;
36213;SDS011;37652;50.400;30.628;2022-10-31T02:17:47;7.50;;;1.90;;
36213;SDS011;37652;50.400;30.628;2022-10-31T02:19:54;7.95;;;2.20;;
36213;SDS011;37652;50.400;30.628;2022-10-31T02:42:39;7.95;;;1.98;;
36213;SDS011;37652;50.400;30.628;2022-10-31T02:47:13;5.65;;;1.88;;
36213;SDS011;37652;50.400;30.628;2022-10-31T02:51:44;4.13;;;1.90;;
36213;SDS011;37652;50.400;30.628;2022-10-31T02:53:45;5.15;;;1.90;;
36213;SDS011;37652;50.400;30.628;2022-10-31T02:55:48;3.67;;;2.15;;
36213;SDS011;37652;50.400;30.628;2022-10-31T02:58:05;6.82;;;2.42;;
36213;SDS011;37652;50.400;30.628;2022-10-31T03:00:07;8.35;;;2.33;;
36213;SDS011;37652;50.400;30.628;2022-10-31T03:02:11;4.63;;;1.90;;
36213;SDS011;37652;50.400;30.628;2022-10-31T03:04:23;3.03;;;1.52;;
36213;SDS011;37652;50.400;30.628;2022-10-31T03:06:47;5.88;;;2.00;;
36213;SDS011;37652;50.400;30.628;2022-10-31T03:08:52;5.63;;;3.00;;
36213;SDS011;37652;50.400;30.628;2022-10-31T03:11:05;7.55;;;1.88;;
36213;SDS011;37652;50.400;30.628;2022-10-31T03:15:39;5.03;;;1.83;;
36213;SDS011;37652;50.400;30.628;2022-10-31T03:18:03;5.82;;;2.45;;
36213;SDS011;37652;50.400;30.628;2022-10-31T03:20:09;5.25;;;2.10;;
36213;SDS011;37652;50.400;30.628;2022-10-31T03:22:17;3.78;;;2.30;;
36213;SDS011;37652;50.400;30.628;2022-10-31T03:24:22;4.93;;;2.03;;
36213;SDS011;37652;50.400;30.628;2022-10-31T03:26:27;5.38;;;2.15;;
36213;SDS011;37652;50.400;30.628;2022-10-31T03:28:29;4.32;;;1.98;;
36213;SDS011;37652;50.400;30.628;2022-10-31T03:30:36;6.07;;;2.15;;
36213;SDS011;37652;50.400;30.628;2022-10-31T03:32:57;4.68;;;2.05;;
36213;SDS011;37652;50.400;30.628;2022-10-31T03:35:02;4.43;;;1.55;;
36213;SDS011;37652;50.400;30.628;2022-10-31T03:37:06;4.95;;;1.70;;
36213;SDS011;37652;50.400;30.628;2022-10-31T03:39:11;2.92;;;1.30;;
36213;SDS011;37652;50.400;30.628;2022-10-31T03:41:16;4.40;;;1.50;;
36213;SDS011;37652;50.400;30.628;2022-10-31T03:43:19;4.72;;;1.50;;
36213;SDS011;37652;50.400;30.628;2022-10-31T03:45:26;4.85;;;1.17;;
36213;SDS011;37652;50.400;30.628;2022-10-31T03:47:30;0.82;;;0.70;;
36213;SDS011;37652;50.400;30.628;2022-10-31T03:49:31;4.05;;;0.70;;
36213;SDS011;37652;50.400;30.628;2022-10-31T03:51:42;4.05;;;0.85;;
36213;SDS011;37652;50.400;30.628;2022-10-31T03:53:55;1.15;;;0.63;;
36213;SDS011;37652;50.400;30.628;2022-10-31T03:56:23;2.05;;;0.50;;
36213;SDS011;37652;50.400;30.628;2022-10-31T04:00:38;6.20;;;0.50;;
36213;SDS011;37652;50.400;30.628;2022-10-31T04:02:42;1.58;;;0.52;;
36213;SDS011;37652;50.400;30.628;2022-10-31T04:04:49;6.72;;;0.60;;
36213;SDS011;37652;50.400;30.628;2022-10-31T04:06:50;1.13;;;0.55;;
36213;SDS011;37652;50.400;30.628;2022-10-31T04:08:57;0.82;;;0.40;;
36213;SDS011;37652;50.400;30.628;2022-10-31T04:10:59;2.58;;;0.70;;
36213;SDS011;37652;50.400;30.628;2022-10-31T04:13:09;0.75;;;0.43;;
36213;SDS011;37652;50.400;30.628;2022-10-31T04:15:13;2.63;;;0.88;;
36213;SDS011;37652;50.400;30.628;2022-10-31T04:17:15;1.42;;;0.70;;
36213;SDS011;37652;50.400;30.628;2022-10-31T04:19:18;1.02;;;0.40;;
36213;SDS011;37652;50.400;30.628;2022-10-31T04:21:19;0.93;;;0.50;;
36213;SDS011;37652;50.400;30.628;2022-10-31T04:23:28;3.47;;;0.50;;
36213;SDS011;37652;50.400;30.628;2022-10-31T04:25:29;4.63;;;0.50;;
36213;SDS011;37652;50.400;30.628;2022-10-31T04:27:29;1.48;;;0.50;;
36213;SDS011;37652;50.400;30.628;2022-10-31T04:29:30;5.18;;;0.80;;
36213;SDS011;37652;50.400;30.628;2022-10-31T04:31:31;1.25;;;0.60;;
36213;SDS011;37652;50.400;30.628;2022-10-31T04:33:32;1.95;;;0.85;;
36213;SDS011;37652;50.400;30.628;2022-10-31T04:35:33;1.85;;;0.70;;
36213;SDS011;37652;50.400;30.628;2022-10-31T04:37:34;0.73;;;0.50;;
36213;SDS011;37652;50.400;30.628;2022-10-31T04:39:35;0.90;;;0.50;;
36213;SDS011;37652;50.400;30.628;2022-10-31T04:41:35;0.80;;;0.57;;
36213;SDS011;37652;50.400;30.628;2022-10-31T04:43:36;1.63;;;0.60;;
36213;SDS011;37652;50.400;30.628;2022-10-31T04:45:37;2.45;;;0.50;;
36213;SDS011;37652;50.400;30.628;2022-10-31T04:47:38;1.38;;;0.60;;
36213;SDS011;37652;50.400;30.628;2022-10-31T04:49:39;1.17;;;0.45;;
36213;SDS011;37652;50.400;30.628;2022-10-31T04:51:40;1.75;;;0.40;;
36213;SDS011;37652;50.400;30.628;2022-10-31T04:53:41;3.13;;;0.70;;
36213;SDS011;37652;50.400;30.628;2022-10-31T04:55:42;1.48;;;0.60;;
36213;SDS011;37652;50.400;30.628;2022-10-31T04:57:43;1.20;;;0.60;;
36213;SDS011;37652;50.400;30.628;2022-10-31T04:59:45;4.20;;;0.68;;
36213;SDS011;37652;50.400;30.628;2022-10-31T05:01:46;0.73;;;0.50;;
36213;SDS011;37652;50.400;30.628;2022-10-31T05:03:47;2.92;;;0.75;;
36213;SDS011;37652;50.400;30.628;2022-10-31T05:05:47;2.53;;;0.82;;
36213;SDS011;37652;50.400;30.628;2022-10-31T05:07:48;1.42;;;0.70;;
36213;SDS011;37652;50.400;30.628;2022-10-31T05:11:51;1.90;;;0.77;;
36213;SDS011;37652;50.400;30.628;2022-10-31T05:13:52;1.25;;;0.68;;
36213;SDS011;37652;50.400;30.628;2022-10-31T05:15:53;0.95;;;0.80;;
36213;SDS011;37652;50.400;30.628;2022-10-31T05:17:54;2.53;;;1.02;;
36213;SDS011;37652;50.400;30.628;2022-10-31T05:21:56;3.00;;;0.70;;
36213;SDS011;37652;50.400;30.628;2022-10-31T05:23:57;2.67;;;0.80;;
36213;SDS011;37652;50.400;30.628;2022-10-31T05:25:58;1.60;;;0.82;;
36213;SDS011;37652;50.400;30.628;2022-10-31T05:27:59;3.35;;;0.90;;
36213;SDS011;37652;50.400;30.628;2022-10-31T05:30:00;4.40;;;1.35;;
36213;SDS011;37652;50.400;30.628;2022-10-31T05:32:01;2.50;;;1.27;;
36213;SDS011;37652;50.400;30.628;2022-10-31T05:34:02;2.10;;;1.52;;
36213;SDS011;37652;50.400;30.628;2022-10-31T05:36:03;2.00;;;1.30;;
36213;SDS011;37652;50.400;30.628;2022-10-31T05:38:04;2.63;;;0.93;;
36213;SDS011;37652;50.400;30.628;2022-10-31T05:40:06;2.10;;;0.85;;
36213;SDS011;37652;50.400;30.628;2022-10-31T05:42:07;1.80;;;0.80;;
36213;SDS011;37652;50.400;30.628;2022-10-31T05:44:08;4.07;;;0.85;;
36213;SDS011;37652;50.400;30.628;2022-10-31T05:46:09;1.02;;;0.93;;
36213;SDS011;37652;50.400;30.628;2022-10-31T05:48:10;4.65;;;0.90;;
36213;SDS011;37652;50.400;30.628;2022-10-31T05:50:11;2.80;;;0.82;;
36213;SDS011;37652;50.400;30.628;2022-10-31T05:52:12;2.15;;;0.80;;
36213;SDS011;37652;50.400;30.628;2022-10-31T05:54:14;1.67;;;0.80;;
36213;SDS011;37652;50.400;30.628;2022-10-31T05:56:15;1.52;;;0.80;;
36213;SDS011;37652;50.400;30.628;2022-10-31T05:58:16;1.95;;;0.70;;
36213;SDS011;37652;50.400;30.628;2022-10-31T06:00:17;2.40;;;0.73;;
36213;SDS011;37652;50.400;30.628;2022-10-31T06:02:18;2.38;;;0.50;;
36213;SDS011;37652;50.400;30.628;2022-10-31T06:04:20;4.93;;;0.80;;
36213;SDS011;37652;50.400;30.628;2022-10-31T06:06:21;3.08;;;0.73;;
36213;SDS011;37652;50.400;30.628;2022-10-31T06:08:22;1.27;;;0.80;;
36213;SDS011;37652;50.400;30.628;2022-10-31T06:10:23;3.30;;;1.58;;
36213;SDS011;37652;50.400;30.628;2022-10-31T06:12:24;2.50;;;0.90;;
36213;SDS011;37652;50.400;30.628;2022-10-31T06:14:24;6.05;;;0.90;;
36213;SDS011;37652;50.400;30.628;2022-10-31T06:16:25;1.38;;;0.77;;
36213;SDS011;37652;50.400;30.628;2022-10-31T06:18:26;3.10;;;0.80;;
36213;SDS011;37652;50.400;30.628;2022-10-31T06:20:28;2.83;;;1.48;;
36213;SDS011;37652;50.400;30.628;2022-10-31T06:22:28;1.92;;;0.98;;
36213;SDS011;37652;50.400;30.628;2022-10-31T06:24:30;1.75;;;0.68;;
36213;SDS011;37652;50.400;30.628;2022-10-31T06:26:31;2.97;;;0.90;;
36213;SDS011;37652;50.400;30.628;2022-10-31T06:28:32;1.80;;;0.82;;
36213;SDS011;37652;50.400;30.628;2022-10-31T06:30:33;2.03;;;0.90;;
36213;SDS011;37652;50.400;30.628;2022-10-31T06:32:34;5.72;;;1.30;;
36213;SDS011;37652;50.400;30.628;2022-10-31T06:34:35;2.75;;;1.00;;
36213;SDS011;37652;50.400;30.628;2022-10-31T06:36:36;1.77;;;0.65;;
36213;SDS011;37652;50.400;30.628;2022-10-31T06:38:37;3.33;;;0.93;;
36213;SDS011;37652;50.400;30.628;2022-10-31T06:40:38;1.45;;;1.05;;
36213;SDS011;37652;50.400;30.628;2022-10-31T06:42:39;3.50;;;1.50;;
36213;SDS011;37652;50.400;30.628;2022-10-31T06:44:40;1.55;;;1.08;;
36213;SDS011;37652;50.400;30.628;2022-10-31T06:46:41;2.60;;;0.80;;
36213;SDS011;37652;50.400;30.628;2022-10-31T06:48:42;1.67;;;0.98;;
36213;SDS011;37652;50.400;30.628;2022-10-31T06:50:43;1.38;;;0.88;;
36213;SDS011;37652;50.400;30.628;2022-10-31T06:52:49;3.00;;;0.90;;
36213;SDS011;37652;50.400;30.628;2022-10-31T06:54:50;2.85;;;0.70;;
36213;SDS011;37652;50.400;30.628;2022-10-31T06:56:51;1.23;;;0.77;;
36213;SDS011;37652;50.400;30.628;2022-10-31T06:58:52;2.55;;;0.93;;
36213;SDS011;37652;50.400;30.628;2022-10-31T07:00:53;3.25;;;0.80;;
36213;SDS011;37652;50.400;30.628;2022-10-31T07:03:01;4.43;;;0.60;;
36213;SDS011;37652;50.400;30.628;2022-10-31T07:05:02;4.85;;;0.77;;
36213;SDS011;37652;50.400;30.628;2022-10-31T07:07:03;5.38;;;0.85;;
36213;SDS011;37652;50.400;30.628;2022-10-31T07:09:04;2.28;;;0.70;;
36213;SDS011;37652;50.400;30.628;2022-10-31T07:11:05;1.17;;;0.50;;
36213;SDS011;37652;50.400;30.628;2022-10-31T07:13:08;3.10;;;0.50;;
36213;SDS011;37652;50.400;30.628;2022-10-31T07:15:12;1.10;;;0.80;;
36213;SDS011;37652;50.400;30.628;2022-10-31T07:17:13;2.65;;;0.60;;
36213;SDS011;37652;50.400;30.628;2022-10-31T07:19:15;3.70;;;1.40;;
36213;SDS011;37652;50.400;30.628;2022-10-31T07:21:16;2.33;;;1.10;;
36213;SDS011;37652;50.400;30.628;2022-10-31T07:23:17;1.48;;;0.82;;
36213;SDS011;37652;50.400;30.628;2022-10-31T07:25:17;1.98;;;0.70;;
36213;SDS011;37652;50.400;30.628;2022-10-31T07:27:18;2.42;;;1.08;;
36213;SDS011;37652;50.400;30.628;2022-10-31T07:29:19;1.48;;;0.70;;
36213;SDS011;37652;50.400;30.628;2022-10-31T07:31:20;1.60;;;0.80;;
36213;SDS011;37652;50.400;30.628;2022-10-31T07:33:21;1.20;;;0.50;;
36213;SDS011;37652;50.400;30.628;2022-10-31T07:35:24;1.30;;;0.65;;
36213;SDS011;37652;50.400;30.628;2022-10-31T07:37:27;2.13;;;0.47;;
36213;SDS011;37652;50.400;30.628;2022-10-31T07:39:28;0.82;;;0.60;;
36213;SDS011;37652;50.400;30.628;2022-10-31T07:41:29;2.30;;;0.57;;
36213;SDS011;37652;50.400;30.628;2022-10-31T07:43:30;3.70;;;1.17;;
36213;SDS011;37652;50.400;30.628;2022-10-31T07:45:31;1.08;;;0.80;;
36213;SDS011;37652;50.400;30.628;2022-10-31T07:49:42;0.85;;;0.80;;
36213;SDS011;37652;50.400;30.628;2022-10-31T07:51:43;1.30;;;0.70;;
36213;SDS011;37652;50.400;30.628;2022-10-31T07:53:44;1.33;;;0.50;;
36213;SDS011;37652;50.400;30.628;2022-10-31T07:55:45;2.53;;;0.57;;
36213;SDS011;37652;50.400;30.628;2022-10-31T07:57:46;1.30;;;0.70;;
36213;SDS011;37652;50.400;30.628;2022-10-31T07:59:55;2.80;;;0.60;;
36213;SDS011;37652;50.400;30.628;2022-10-31T08:01:56;4.93;;;1.05;;
36213;SDS011;37652;50.400;30.628;2022-10-31T08:03:57;4.35;;;1.63;;
36213;SDS011;37652;50.400;30.628;2022-10-31T08:05:58;1.73;;;1.27;;
36213;SDS011;37652;50.400;30.628;2022-10-31T08:07:59;2.85;;;0.55;;
36213;SDS011;37652;50.400;30.628;2022-10-31T08:10:00;1.40;;;0.60;;
36213;SDS011;37652;50.400;30.628;2022-10-31T08:12:01;3.55;;;0.60;;
36213;SDS011;37652;50.400;30.628;2022-10-31T08:14:02;1.20;;;0.90;;
36213;SDS011;37652;50.400;30.628;2022-10-31T08:16:03;0.77;;;0.70;;
36213;SDS011;37652;50.400;30.628;2022-10-31T08:20:06;2.70;;;0.82;;
36213;SDS011;37652;50.400;30.628;2022-10-31T08:22:07;5.45;;;0.90;;
36213;SDS011;37652;50.400;30.628;2022-10-31T08:24:08;3.08;;;0.90;;
36213;SDS011;37652;50.400;30.628;2022-10-31T08:26:09;1.85;;;0.80;;
36213;SDS011;37652;50.400;30.628;2022-10-31T08:30:11;0.88;;;0.50;;
36213;SDS011;37652;50.400;30.628;2022-10-31T08:34:13;0.70;;;0.68;;
36213;SDS011;37652;50.400;30.628;2022-10-31T08:38:15;1.15;;;0.73;;
36213;SDS011;37652;50.400;30.628;2022-10-31T08:42:16;1.15;;;0.57;;
36213;SDS011;37652;50.400;30.628;2022-10-31T08:46:18;2.13;;;0.60;;
36213;SDS011;37652;50.400;30.628;2022-10-31T08:50:19;2.57;;;0.70;;
36213;SDS011;37652;50.400;30.628;2022-10-31T08:52:22;1.85;;;0.63;;
36213;SDS011;37652;50.400;30.628;2022-10-31T08:54:24;2.45;;;0.80;;
36213;SDS011;37652;50.400;30.628;2022-10-31T08:56:25;1.52;;;0.68;;
36213;SDS011;37652;50.400;30.628;2022-10-31T08:58:26;3.00;;;0.57;;
36213;SDS011;37652;50.400;30.628;2022-10-31T09:00:27;3.00;;;0.80;;
36213;SDS011;37652;50.400;30.628;2022-10-31T09:02:28;4.55;;;0.60;;
36213;SDS011;37652;50.400;30.628;2022-10-31T09:04:29;3.40;;;0.80;;
36213;SDS011;37652;50.400;30.628;2022-10-31T09:06:30;3.22;;;0.68;;
36213;SDS011;37652;50.400;30.628;2022-10-31T09:08:32;2.90;;;0.80;;
36213;SDS011;37652;50.400;30.628;2022-10-31T09:10:33;1.13;;;0.50;;
36213;SDS011;37652;50.400;30.628;2022-10-31T09:12:35;0.88;;;0.50;;
36213;SDS011;37652;50.400;30.628;2022-10-31T09:14:36;5.18;;;1.40;;
36213;SDS011;37652;50.400;30.628;2022-10-31T09:16:37;1.35;;;0.80;;
36213;SDS011;37652;50.400;30.628;2022-10-31T09:18:38;1.95;;;0.90;;
36213;SDS011;37652;50.400;30.628;2022-10-31T09:20:39;0.85;;;0.52;;
36213;SDS011;37652;50.400;30.628;2022-10-31T09:22:41;1.10;;;0.70;;
36213;SDS011;37652;50.400;30.628;2022-10-31T09:24:42;1.08;;;0.50;;
36213;SDS011;37652;50.400;30.628;2022-10-31T09:26:43;3.15;;;0.57;;
36213;SDS011;37652;50.400;30.628;2022-10-31T09:28:44;1.60;;;0.70;;
36213;SDS011;37652;50.400;30.628;2022-10-31T09:30:47;1.90;;;0.55;;
36213;SDS011;37652;50.400;30.628;2022-10-31T09:32:54;0.50;;;0.50;;
36213;SDS011;37652;50.400;30.628;2022-10-31T09:34:58;2.95;;;1.40;;
36213;SDS011;37652;50.400;30.628;2022-10-31T09:36:59;5.13;;;1.02;;
36213;SDS011;37652;50.400;30.628;2022-10-31T09:39:00;3.50;;;0.70;;
36213;SDS011;37652;50.400;30.628;2022-10-31T09:41:06;2.72;;;0.80;;
36213;SDS011;37652;50.400;30.628;2022-10-31T09:50:42;5.45;;;1.08;;
36213;SDS011;37652;50.400;30.628;2022-10-31T09:52:59;1.30;;;0.70;;
36213;SDS011;37652;50.400;30.628;2022-10-31T09:55:05;1.23;;;0.70;;
36213;SDS011;37652;50.400;30.628;2022-10-31T09:57:10;1.38;;;0.60;;
36213;SDS011;37652;50.400;30.628;2022-10-31T09:59:18;1.85;;;0.55;;
36213;SDS011;37652;50.400;30.628;2022-10-31T10:01:48;1.20;;;1.00;;
36213;SDS011;37652;50.400;30.628;2022-10-31T10:03:51;2.80;;;0.50;;
36213;SDS011;37652;50.400;30.628;2022-10-31T10:06:06;2.38;;;0.50;;
36213;SDS011;37652;50.400;30.628;2022-10-31T10:08:17;1.95;;;0.65;;
36213;SDS011;37652;50.400;30.628;2022-10-31T10:25:24;2.53;;;1.23;;
36213;SDS011;37652;50.400;30.628;2022-10-31T10:32:00;0.50;;;0.50;;
36213;SDS011;37652;50.400;30.628;2022-10-31T10:34:06;2.40;;;1.67;;
36213;SDS011;37652;50.400;30.628;2022-10-31T10:36:41;0.65;;;0.45;;
36213;SDS011;37652;50.400;30.628;2022-10-31T10:38:51;2.83;;;0.60;;
36213;SDS011;37652;50.400;30.628;2022-10-31T10:40:52;4.55;;;0.60;;
36213;SDS011;37652;50.400;30.628;2022-10-31T10:47:42;0.50;;;0.50;;
36213;SDS011;37652;50.400;30.628;2022-10-31T10:49:51;1.02;;;0.50;;
36213;SDS011;37652;50.400;30.628;2022-10-31T10:58:43;2.63;;;0.50;;
36213;SDS011;37652;50.400;30.628;2022-10-31T11:00:46;1.58;;;0.70;;
36213;SDS011;37652;50.400;30.628;2022-10-31T11:02:49;1.58;;;0.80;;
36213;SDS011;37652;50.400;30.628;2022-10-31T11:04:51;3.17;;;1.25;;
36213;SDS011;37652;50.400;30.628;2022-10-31T11:07:36;2.13;;;0.50;;
36213;SDS011;37652;50.400;30.628;2022-10-31T11:09:20;2.33;;;0.63;;
36213;SDS011;37652;50.400;30.628;2022-10-31T11:13:25;0.93;;;0.50;;
36213;SDS011;37652;50.400;30.628;2022-10-31T11:15:27;3.10;;;0.70;;
36213;SDS011;37652;50.400;30.628;2022-10-31T11:17:32;1.73;;;0.80;;
36213;SDS011;37652;50.400;30.628;2022-10-31T11:19:37;0.80;;;0.32;;
36213;SDS011;37652;50.400;30.628;2022-10-31T11:21:38;1.35;;;0.90;;
36213;SDS011;37652;50.400;30.628;2022-10-31T11:23:39;1.00;;;0.73;;
36213;SDS011;37652;50.400;30.628;2022-10-31T11:25:47;1.40;;;0.77;;
36213;SDS011;37652;50.400;30.628;2022-10-31T11:28:01;1.20;;;0.70;;
36213;SDS011;37652;50.400;30.628;2022-10-31T11:30:04;2.75;;;1.10;;
36213;SDS011;37652;50.400;30.628;2022-10-31T11:32:08;1.60;;;0.70;;
36213;SDS011;37652;50.400;30.628;2022-10-31T11:34:19;2.78;;;0.80;;
36213;SDS011;37652;50.400;30.628;2022-10-31T11:36:23;0.88;;;0.55;;
36213;SDS011;37652;50.400;30.628;2022-10-31T11:38:39;2.95;;;0.80;;
36213;SDS011;37652;50.400;30.628;2022-10-31T11:40:50;2.00;;;1.00;;
36213;SDS011;37652;50.400;30.628;2022-10-31T11:42:57;5.00;;;2.05;;
36213;SDS011;37652;50.400;30.628;2022-10-31T11:44:59;2.95;;;0.80;;
36213;SDS011;37652;50.400;30.628;2022-10-31T11:47:02;2.88;;;0.70;;
36213;SDS011;37652;50.400;30.628;2022-10-31T11:49:04;1.25;;;0.70;;
36213;SDS011;37652;50.400;30.628;2022-10-31T11:51:11;1.30;;;0.60;;
36213;SDS011;37652;50.400;30.628;2022-10-31T11:53:19;1.52;;;0.80;;
36213;SDS011;37652;50.400;30.628;2022-10-31T11:55:36;1.92;;;0.82;;
36213;SDS011;37652;50.400;30.628;2022-10-31T11:57:45;1.80;;;0.80;;
36213;SDS011;37652;50.400;30.628;2022-10-31T11:59:50;0.40;;;0.40;;
36213;SDS011;37652;50.400;30.628;2022-10-31T12:01:52;0.50;;;0.50;;
36213;SDS011;37652;50.400;30.628;2022-10-31T12:06:00;2.13;;;0.50;;
36213;SDS011;37652;50.400;30.628;2022-10-31T12:08:02;1.95;;;0.35;;
36213;SDS011;37652;50.400;30.628;2022-10-31T12:10:09;5.35;;;1.10;;
36213;SDS011;37652;50.400;30.628;2022-10-31T12:14:54;1.13;;;0.47;;
36213;SDS011;37652;50.400;30.628;2022-10-31T12:32:21;1.38;;;0.98;;
36213;SDS011;37652;50.400;30.628;2022-10-31T12:35:03;1.45;;;0.70;;
36213;SDS011;37652;50.400;30.628;2022-10-31T12:47:43;1.67;;;1.08;;
36213;SDS011;37652;50.400;30.628;2022-10-31T12:58:10;3.13;;;0.98;;
36213;SDS011;37652;50.400;30.628;2022-10-31T13:00:16;1.17;;;0.50;;
36213;SDS011;37652;50.400;30.628;2022-10-31T13:02:22;3.05;;;1.00;;
36213;SDS011;37652;50.400;30.628;2022-10-31T13:06:52;2.53;;;1.80;;
36213;SDS011;37652;50.400;30.628;2022-10-31T13:08:55;2.08;;;1.77;;
36213;SDS011;37652;50.400;30.628;2022-10-31T13:11:02;0.80;;;0.80;;
36213;SDS011;37652;50.400;30.628;2022-10-31T13:15:26;1.45;;;1.10;;
36213;SDS011;37652;50.400;30.628;2022-10-31T13:17:34;4.25;;;0.77;;
36213;SDS011;37652;50.400;30.628;2022-10-31T13:19:38;3.15;;;1.00;;
36213;SDS011;37652;50.400;30.628;2022-10-31T13:24:10;2.40;;;0.60;;
36213;SDS011;37652;50.400;30.628;2022-10-31T13:26:21;3.30;;;0.88;;
36213;SDS011;37652;50.400;30.628;2022-10-31T15:08:32;2.22;;;1.25;;
36213;SDS011;37652;50.400;30.628;2022-10-31T15:10:37;1.80;;;1.08;;
36213;SDS011;37652;50.400;30.628;2022-10-31T15:12:39;2.25;;;1.33;;
36213;SDS011;37652;50.400;30.628;2022-10-31T15:14:40;2.20;;;1.00;;
36213;SDS011;37652;50.400;30.628;2022-10-31T15:16:41;2.97;;;1.15;;
36213;SDS011;37652;50.400;30.628;2022-10-31T15:19:26;1.80;;;1.08;;
36213;SDS011;37652;50.400;30.628;2022-10-31T15:21:07;1.45;;;0.95;;
36213;SDS011;37652;50.400;30.628;2022-10-31T15:25:31;1.25;;;0.90;;
36213;SDS011;37652;50.400;30.628;2022-10-31T15:27:34;0.80;;;0.77;;
36213;SDS011;37652;50.400;30.628;2022-10-31T15:29:35;3.65;;;1.10;;
36213;SDS011;37652;50.400;30.628;2022-10-31T15:31:36;1.20;;;1.10;;
36213;SDS011;37652;50.400;30.628;2022-10-31T15:33:40;3.40;;;1.08;;
36213;SDS011;37652;50.400;30.628;2022-10-31T15:35:41;1.67;;;1.10;;
36213;SDS011;37652;50.400;30.628;2022-10-31T15:37:42;2.67;;;0.90;;
36213;SDS011;37652;50.400;30.628;2022-10-31T15:39:44;2.30;;;1.00;;
36213;SDS011;37652;50.400;30.628;2022-10-31T15:41:56;1.17;;;0.85;;
36213;SDS011;37652;50.400;30.628;2022-10-31T15:44:03;1.25;;;0.93;;
36213;SDS011;37652;50.400;30.628;2022-10-31T15:46:08;2.00;;;1.33;;
36213;SDS011;37652;50.400;30.628;2022-10-31T15:48:16;1.73;;;1.52;;
36213;SDS011;37652;50.400;30.628;2022-10-31T15:50:19;1.98;;;1.50;;
36213;SDS011;37652;50.400;30.628;2022-10-31T15:52:25;1.67;;;1.13;;
36213;SDS011;37652;50.400;30.628;2022-10-31T15:54:28;2.80;;;1.30;;
36213;SDS011;37652;50.400;30.628;2022-10-31T15:56:30;2.15;;;1.27;;
36213;SDS011;37652;50.400;30.628;2022-10-31T15:58:32;1.95;;;1.40;;
36213;SDS011;37652;50.400;30.628;2022-10-31T16:00:34;4.50;;;1.38;;
36213;SDS011;37652;50.400;30.628;2022-10-31T16:02:36;3.58;;;1.60;;
36213;SDS011;37652;50.400;30.628;2022-10-31T16:04:37;2.85;;;1.83;;
36213;SDS011;37652;50.400;30.628;2022-10-31T16:06:38;2.58;;;1.90;;
36213;SDS011;37652;50.400;30.628;2022-10-31T16:08:44;2.50;;;2.08;;
36213;SDS011;37652;50.400;30.628;2022-10-31T16:10:46;3.80;;;3.20;;
36213;SDS011;37652;50.400;30.628;2022-10-31T16:12:47;3.42;;;1.90;;
36213;SDS011;37652;50.400;30.628;2022-10-31T16:14:49;3.25;;;1.88;;
36213;SDS011;37652;50.400;30.628;2022-10-31T16:16:52;3.92;;;2.42;;